sensor_id;sensor_type;location;lat;lon;timestamp;temperature;humidity
23289;DHT22;11813;50.834;4.280;2023-10-09T00:00:15;17.40;99.90
23289;DHT22;11813;50.834;4.280;2023-10-09T00:02:56;17.50;99.90
23289;DHT22;11813;50.834;4.280;2023-10-09T00:05:25;17.60;99.90
23289;DHT22;11813;50.834;4.280;2023-10-09T00:07:56;17.50;99.90
23289;DHT22;11813;50.834;4.280;2023-10-09T00:10:23;17.50;99.90
23289;DHT22;11813;50.834;4.280;2023-10-09T00:13:00;17.50;99.90
23289;DHT22;11813;50.834;4.280;2023-10-09T00:15:25;17.50;99.90
23289;DHT22;11813;50.834;4.280;2023-10-09T00:17:53;17.50;99.90
23289;DHT22;11813;50.834;4.280;2023-10-09T00:20:21;17.50;99.90
23289;DHT22;11813;50.834;4.280;2023-10-09T00:22:55;17.50;99.90
23289;DHT22;11813;50.834;4.280;2023-10-09T00:25:22;17.40;99.90
23289;DHT22;11813;50.834;4.280;2023-10-09T00:27:49;17.30;99.90
23289;DHT22;11813;50.834;4.280;2023-10-09T00:30:16;17.30;99.90
23289;DHT22;11813;50.834;4.280;2023-10-09T00:32:47;17.30;99.90
23289;DHT22;11813;50.834;4.280;2023-10-09T00:35:27;17.40;99.90
23289;DHT22;11813;50.834;4.280;2023-10-09T00:38:05;17.40;99.90
23289;DHT22;11813;50.834;4.280;2023-10-09T00:40:50;17.50;99.90
23289;DHT22;11813;50.834;4.280;2023-10-09T00:43:38;17.50;99.90
23289;DHT22;11813;50.834;4.280;2023-10-09T00:46:08;17.50;99.90
23289;DHT22;11813;50.834;4.280;2023-10-09T00:48:57;17.50;99.90
23289;DHT22;11813;50.834;4.280;2023-10-09T00:51:26;17.50;99.90
23289;DHT22;11813;50.834;4.280;2023-10-09T00:53:54;17.50;99.90
23289;DHT22;11813;50.834;4.280;2023-10-09T00:56:23;17.50;99.90
23289;DHT22;11813;50.834;4.280;2023-10-09T00:58:53;17.50;99.90
23289;DHT22;11813;50.834;4.280;2023-10-09T01:01:25;17.50;99.90
23289;DHT22;11813;50.834;4.280;2023-10-09T01:04:01;17.50;99.90
23289;DHT22;11813;50.834;4.280;2023-10-09T01:06:41;17.50;99.90
23289;DHT22;11813;50.834;4.280;2023-10-09T01:09:12;17.50;99.90
23289;DHT22;11813;50.834;4.280;2023-10-09T01:11:39;17.50;99.90
23289;DHT22;11813;50.834;4.280;2023-10-09T01:14:21;17.50;99.90
23289;DHT22;11813;50.834;4.280;2023-10-09T01:16:48;17.50;99.90
23289;DHT22;11813;50.834;4.280;2023-10-09T01:19:14;17.50;99.90
23289;DHT22;11813;50.834;4.280;2023-10-09T01:21:52;17.50;99.90
23289;DHT22;11813;50.834;4.280;2023-10-09T01:24:18;17.50;99.90
23289;DHT22;11813;50.834;4.280;2023-10-09T01:26:45;17.50;99.90
23289;DHT22;11813;50.834;4.280;2023-10-09T01:29:20;17.50;99.90
23289;DHT22;11813;50.834;4.280;2023-10-09T01:31:53;17.50;99.90
23289;DHT22;11813;50.834;4.280;2023-10-09T01:34:30;17.50;99.90
23289;DHT22;11813;50.834;4.280;2023-10-09T01:37:20;17.50;99.90
23289;DHT22;11813;50.834;4.280;2023-10-09T01:39:56;17.50;99.90
23289;DHT22;11813;50.834;4.280;2023-10-09T01:42:41;17.50;99.90
23289;DHT22;11813;50.834;4.280;2023-10-09T01:45:13;17.40;99.90
23289;DHT22;11813;50.834;4.280;2023-10-09T01:47:38;17.30;99.90
23289;DHT22;11813;50.834;4.280;2023-10-09T01:50:06;17.30;99.90
23289;DHT22;11813;50.834;4.280;2023-10-09T01:52:38;17.30;99.90
23289;DHT22;11813;50.834;4.280;2023-10-09T01:55:03;17.40;99.90
23289;DHT22;11813;50.834;4.280;2023-10-09T01:57:34;17.40;99.90
23289;DHT22;11813;50.834;4.280;2023-10-09T02:00:01;17.50;99.90
23289;DHT22;11813;50.834;4.280;2023-10-09T02:02:29;17.50;99.90
23289;DHT22;11813;50.834;4.280;2023-10-09T02:05:09;17.50;99.90
23289;DHT22;11813;50.834;4.280;2023-10-09T02:07:41;17.50;99.90
23289;DHT22;11813;50.834;4.280;2023-10-09T02:10:11;17.50;99.90
23289;DHT22;11813;50.834;4.280;2023-10-09T02:12:57;17.50;99.90
23289;DHT22;11813;50.834;4.280;2023-10-09T02:15:28;17.40;99.90
23289;DHT22;11813;50.834;4.280;2023-10-09T02:18:06;17.40;99.90
23289;DHT22;11813;50.834;4.280;2023-10-09T02:20:52;17.40;99.90
23289;DHT22;11813;50.834;4.280;2023-10-09T02:23:28;17.40;99.90
23289;DHT22;11813;50.834;4.280;2023-10-09T02:26:12;17.30;99.90
23289;DHT22;11813;50.834;4.280;2023-10-09T02:28:45;17.30;99.90
23289;DHT22;11813;50.834;4.280;2023-10-09T02:31:18;17.40;99.90
23289;DHT22;11813;50.834;4.280;2023-10-09T02:33:47;17.30;99.90
23289;DHT22;11813;50.834;4.280;2023-10-09T02:36:15;17.40;99.90
23289;DHT22;11813;50.834;4.280;2023-10-09T02:38:41;17.30;99.90
23289;DHT22;11813;50.834;4.280;2023-10-09T02:41:08;17.40;99.90
23289;DHT22;11813;50.834;4.280;2023-10-09T02:43:39;17.40;99.90
23289;DHT22;11813;50.834;4.280;2023-10-09T02:46:18;17.30;99.90
23289;DHT22;11813;50.834;4.280;2023-10-09T02:48:55;17.40;99.90
23289;DHT22;11813;50.834;4.280;2023-10-09T02:51:23;17.40;99.90
23289;DHT22;11813;50.834;4.280;2023-10-09T02:54:02;17.30;99.90
23289;DHT22;11813;50.834;4.280;2023-10-09T02:56:48;17.30;99.90
23289;DHT22;11813;50.834;4.280;2023-10-09T02:59:35;17.30;99.90
23289;DHT22;11813;50.834;4.280;2023-10-09T03:02:03;17.30;99.90
23289;DHT22;11813;50.834;4.280;2023-10-09T03:04:29;17.40;99.90
23289;DHT22;11813;50.834;4.280;2023-10-09T03:06:55;17.30;99.90
23289;DHT22;11813;50.834;4.280;2023-10-09T03:09:23;17.30;99.90
23289;DHT22;11813;50.834;4.280;2023-10-09T03:11:59;17.30;99.90
23289;DHT22;11813;50.834;4.280;2023-10-09T03:14:34;17.30;99.90
23289;DHT22;11813;50.834;4.280;2023-10-09T03:17:09;17.30;99.90
23289;DHT22;11813;50.834;4.280;2023-10-09T03:19:38;17.30;99.90
23289;DHT22;11813;50.834;4.280;2023-10-09T03:22:04;17.30;99.90
23289;DHT22;11813;50.834;4.280;2023-10-09T03:24:30;17.30;99.90
23289;DHT22;11813;50.834;4.280;2023-10-09T03:27:00;17.30;99.90
23289;DHT22;11813;50.834;4.280;2023-10-09T03:29:26;17.30;99.90
23289;DHT22;11813;50.834;4.280;2023-10-09T03:31:53;17.30;99.90
23289;DHT22;11813;50.834;4.280;2023-10-09T03:34:20;17.20;99.90
23289;DHT22;11813;50.834;4.280;2023-10-09T03:36:46;17.20;99.90
23289;DHT22;11813;50.834;4.280;2023-10-09T03:39:14;17.20;99.90
23289;DHT22;11813;50.834;4.280;2023-10-09T03:41:58;17.20;99.90
23289;DHT22;11813;50.834;4.280;2023-10-09T03:44:24;17.20;99.90
23289;DHT22;11813;50.834;4.280;2023-10-09T03:46:53;17.20;99.90
23289;DHT22;11813;50.834;4.280;2023-10-09T03:49:19;17.20;99.90
23289;DHT22;11813;50.834;4.280;2023-10-09T03:51:49;17.10;99.90
23289;DHT22;11813;50.834;4.280;2023-10-09T03:54:16;17.00;99.90
23289;DHT22;11813;50.834;4.280;2023-10-09T03:56:48;16.90;99.90
23289;DHT22;11813;50.834;4.280;2023-10-09T03:59:20;16.90;99.90
23289;DHT22;11813;50.834;4.280;2023-10-09T04:01:47;16.90;99.90
23289;DHT22;11813;50.834;4.280;2023-10-09T04:04:14;16.80;99.90
23289;DHT22;11813;50.834;4.280;2023-10-09T04:06:40;16.90;99.90
23289;DHT22;11813;50.834;4.280;2023-10-09T04:09:10;16.90;99.90
23289;DHT22;11813;50.834;4.280;2023-10-09T04:11:52;16.90;99.90
23289;DHT22;11813;50.834;4.280;2023-10-09T04:14:39;16.90;99.90
23289;DHT22;11813;50.834;4.280;2023-10-09T04:17:26;16.90;99.90
23289;DHT22;11813;50.834;4.280;2023-10-09T04:19:54;17.00;99.90
23289;DHT22;11813;50.834;4.280;2023-10-09T04:22:40;17.00;99.90
23289;DHT22;11813;50.834;4.280;2023-10-09T04:25:18;17.00;99.90
23289;DHT22;11813;50.834;4.280;2023-10-09T04:28:08;16.90;99.90
23289;DHT22;11813;50.834;4.280;2023-10-09T04:30:47;16.90;99.90
23289;DHT22;11813;50.834;4.280;2023-10-09T04:33:19;16.90;99.90
23289;DHT22;11813;50.834;4.280;2023-10-09T04:36:07;16.90;99.90
23289;DHT22;11813;50.834;4.280;2023-10-09T04:38:49;16.80;99.90
23289;DHT22;11813;50.834;4.280;2023-10-09T04:41:32;16.90;99.90
23289;DHT22;11813;50.834;4.280;2023-10-09T04:43:59;16.80;99.90
23289;DHT22;11813;50.834;4.280;2023-10-09T04:46:59;16.80;99.90
23289;DHT22;11813;50.834;4.280;2023-10-09T04:49:36;16.80;99.90
23289;DHT22;11813;50.834;4.280;2023-10-09T04:52:18;16.70;99.90
23289;DHT22;11813;50.834;4.280;2023-10-09T04:54:57;16.70;99.90
23289;DHT22;11813;50.834;4.280;2023-10-09T04:57:35;16.60;99.90
23289;DHT22;11813;50.834;4.280;2023-10-09T05:00:15;16.60;99.90
23289;DHT22;11813;50.834;4.280;2023-10-09T05:03:08;16.60;99.90
23289;DHT22;11813;50.834;4.280;2023-10-09T05:05:39;16.60;99.90
23289;DHT22;11813;50.834;4.280;2023-10-09T05:10:52;16.70;99.90
23289;DHT22;11813;50.834;4.280;2023-10-09T05:13:27;16.70;99.90
23289;DHT22;11813;50.834;4.280;2023-10-09T05:16:09;16.60;99.90
23289;DHT22;11813;50.834;4.280;2023-10-09T05:18:49;16.60;99.90
23289;DHT22;11813;50.834;4.280;2023-10-09T05:21:53;16.60;99.90
23289;DHT22;11813;50.834;4.280;2023-10-09T05:24:23;16.60;99.90
23289;DHT22;11813;50.834;4.280;2023-10-09T05:26:50;16.70;99.90
23289;DHT22;11813;50.834;4.280;2023-10-09T05:29:24;16.70;99.90
23289;DHT22;11813;50.834;4.280;2023-10-09T05:32:01;16.70;99.90
23289;DHT22;11813;50.834;4.280;2023-10-09T05:34:49;16.60;99.90
23289;DHT22;11813;50.834;4.280;2023-10-09T05:37:32;16.60;99.90
23289;DHT22;11813;50.834;4.280;2023-10-09T05:40:02;16.80;99.90
23289;DHT22;11813;50.834;4.280;2023-10-09T05:42:30;16.80;99.90
23289;DHT22;11813;50.834;4.280;2023-10-09T05:45:13;16.90;99.90
23289;DHT22;11813;50.834;4.280;2023-10-09T05:47:57;16.90;99.90
23289;DHT22;11813;50.834;4.280;2023-10-09T05:50:29;16.90;99.90
23289;DHT22;11813;50.834;4.280;2023-10-09T05:53:24;16.70;99.90
23289;DHT22;11813;50.834;4.280;2023-10-09T05:56:08;16.70;99.90
23289;DHT22;11813;50.834;4.280;2023-10-09T05:58:52;16.70;99.90
23289;DHT22;11813;50.834;4.280;2023-10-09T06:01:36;16.70;99.90
23289;DHT22;11813;50.834;4.280;2023-10-09T06:04:21;16.70;99.90
23289;DHT22;11813;50.834;4.280;2023-10-09T06:06:50;16.70;99.90
23289;DHT22;11813;50.834;4.280;2023-10-09T06:09:22;16.70;99.90
23289;DHT22;11813;50.834;4.280;2023-10-09T06:11:49;16.70;99.90
23289;DHT22;11813;50.834;4.280;2023-10-09T06:14:18;16.70;99.90
23289;DHT22;11813;50.834;4.280;2023-10-09T06:16:57;16.80;99.90
23289;DHT22;11813;50.834;4.280;2023-10-09T06:19:26;16.80;99.90
23289;DHT22;11813;50.834;4.280;2023-10-09T06:21:54;16.80;99.90
23289;DHT22;11813;50.834;4.280;2023-10-09T06:24:41;16.90;99.90
23289;DHT22;11813;50.834;4.280;2023-10-09T06:27:11;16.80;99.90
23289;DHT22;11813;50.834;4.280;2023-10-09T06:29:38;16.90;99.90
23289;DHT22;11813;50.834;4.280;2023-10-09T06:32:17;16.80;99.90
23289;DHT22;11813;50.834;4.280;2023-10-09T06:34:57;16.70;99.90
23289;DHT22;11813;50.834;4.280;2023-10-09T06:37:45;16.70;99.90
23289;DHT22;11813;50.834;4.280;2023-10-09T06:40:30;16.80;99.90
23289;DHT22;11813;50.834;4.280;2023-10-09T06:43:05;16.80;99.90
23289;DHT22;11813;50.834;4.280;2023-10-09T06:45:56;16.70;99.90
23289;DHT22;11813;50.834;4.280;2023-10-09T06:48:40;16.60;99.90
23289;DHT22;11813;50.834;4.280;2023-10-09T06:53:57;16.70;99.90
23289;DHT22;11813;50.834;4.280;2023-10-09T06:56:29;16.70;99.90
23289;DHT22;11813;50.834;4.280;2023-10-09T07:01:26;16.80;99.90
23289;DHT22;11813;50.834;4.280;2023-10-09T07:04:07;16.90;99.90
23289;DHT22;11813;50.834;4.280;2023-10-09T07:06:45;16.90;99.90
23289;DHT22;11813;50.834;4.280;2023-10-09T07:09:12;16.80;99.90
23289;DHT22;11813;50.834;4.280;2023-10-09T07:11:49;16.80;99.90
23289;DHT22;11813;50.834;4.280;2023-10-09T07:14:18;16.90;99.90
23289;DHT22;11813;50.834;4.280;2023-10-09T07:16:56;16.90;99.90
23289;DHT22;11813;50.834;4.280;2023-10-09T07:19:31;16.90;99.90
23289;DHT22;11813;50.834;4.280;2023-10-09T07:22:03;17.00;99.90
23289;DHT22;11813;50.834;4.280;2023-10-09T07:24:30;17.00;99.90
23289;DHT22;11813;50.834;4.280;2023-10-09T07:27:26;17.10;99.90
23289;DHT22;11813;50.834;4.280;2023-10-09T07:30:12;17.10;99.90
23289;DHT22;11813;50.834;4.280;2023-10-09T07:33:04;17.20;99.90
23289;DHT22;11813;50.834;4.280;2023-10-09T07:38:09;17.10;99.90
23289;DHT22;11813;50.834;4.280;2023-10-09T07:40:36;17.20;99.90
23289;DHT22;11813;50.834;4.280;2023-10-09T07:43:20;17.20;99.90
23289;DHT22;11813;50.834;4.280;2023-10-09T07:45:52;17.30;99.90
23289;DHT22;11813;50.834;4.280;2023-10-09T07:48:24;17.30;99.90
23289;DHT22;11813;50.834;4.280;2023-10-09T07:50:52;17.30;99.90
23289;DHT22;11813;50.834;4.280;2023-10-09T07:53:23;17.40;99.90
23289;DHT22;11813;50.834;4.280;2023-10-09T07:55:55;17.50;99.90
23289;DHT22;11813;50.834;4.280;2023-10-09T07:58:22;17.60;99.90
23289;DHT22;11813;50.834;4.280;2023-10-09T08:00:57;17.80;99.90
23289;DHT22;11813;50.834;4.280;2023-10-09T08:03:36;17.90;99.90
23289;DHT22;11813;50.834;4.280;2023-10-09T08:06:02;18.00;99.90
23289;DHT22;11813;50.834;4.280;2023-10-09T08:08:46;18.00;99.90
23289;DHT22;11813;50.834;4.280;2023-10-09T08:11:31;18.00;99.90
23289;DHT22;11813;50.834;4.280;2023-10-09T08:14:08;18.10;99.90
23289;DHT22;11813;50.834;4.280;2023-10-09T08:16:47;18.00;99.90
23289;DHT22;11813;50.834;4.280;2023-10-09T08:19:12;18.10;99.90
23289;DHT22;11813;50.834;4.280;2023-10-09T08:21:57;18.30;99.90
23289;DHT22;11813;50.834;4.280;2023-10-09T08:24:41;18.30;99.90
23289;DHT22;11813;50.834;4.280;2023-10-09T08:27:10;18.30;99.90
23289;DHT22;11813;50.834;4.280;2023-10-09T08:29:53;18.40;99.90
23289;DHT22;11813;50.834;4.280;2023-10-09T08:32:39;18.30;99.90
23289;DHT22;11813;50.834;4.280;2023-10-09T08:35:06;18.40;99.90
23289;DHT22;11813;50.834;4.280;2023-10-09T08:37:55;18.30;99.90
23289;DHT22;11813;50.834;4.280;2023-10-09T08:43:08;18.40;99.90
23289;DHT22;11813;50.834;4.280;2023-10-09T08:45:39;18.50;99.90
23289;DHT22;11813;50.834;4.280;2023-10-09T08:48:09;18.60;99.90
23289;DHT22;11813;50.834;4.280;2023-10-09T08:50:41;18.40;99.90
23289;DHT22;11813;50.834;4.280;2023-10-09T08:53:08;18.40;99.90
23289;DHT22;11813;50.834;4.280;2023-10-09T08:55:36;18.30;99.90
23289;DHT22;11813;50.834;4.280;2023-10-09T08:58:04;18.30;99.90
23289;DHT22;11813;50.834;4.280;2023-10-09T09:00:37;18.50;99.90
23289;DHT22;11813;50.834;4.280;2023-10-09T09:03:04;18.50;99.90
23289;DHT22;11813;50.834;4.280;2023-10-09T09:05:31;18.50;99.90
23289;DHT22;11813;50.834;4.280;2023-10-09T09:08:01;18.60;99.90
23289;DHT22;11813;50.834;4.280;2023-10-09T09:10:29;18.80;99.90
23289;DHT22;11813;50.834;4.280;2023-10-09T09:13:14;18.80;99.90
23289;DHT22;11813;50.834;4.280;2023-10-09T09:15:46;18.90;99.90
23289;DHT22;11813;50.834;4.280;2023-10-09T09:18:12;19.00;99.90
23289;DHT22;11813;50.834;4.280;2023-10-09T09:20:42;19.10;99.90
23289;DHT22;11813;50.834;4.280;2023-10-09T09:23:12;19.10;99.90
23289;DHT22;11813;50.834;4.280;2023-10-09T09:25:43;19.10;99.90
23289;DHT22;11813;50.834;4.280;2023-10-09T09:28:14;19.10;99.90
23289;DHT22;11813;50.834;4.280;2023-10-09T09:30:45;19.30;99.90
23289;DHT22;11813;50.834;4.280;2023-10-09T09:33:23;19.40;99.90
23289;DHT22;11813;50.834;4.280;2023-10-09T09:36:01;19.30;99.90
23289;DHT22;11813;50.834;4.280;2023-10-09T09:38:34;19.50;99.90
23289;DHT22;11813;50.834;4.280;2023-10-09T09:41:23;19.50;99.90
23289;DHT22;11813;50.834;4.280;2023-10-09T09:43:57;19.50;99.90
23289;DHT22;11813;50.834;4.280;2023-10-09T09:46:33;19.40;99.90
23289;DHT22;11813;50.834;4.280;2023-10-09T09:49:01;19.40;99.90
23289;DHT22;11813;50.834;4.280;2023-10-09T09:51:30;19.50;99.90
23289;DHT22;11813;50.834;4.280;2023-10-09T09:53:56;19.60;99.90
23289;DHT22;11813;50.834;4.280;2023-10-09T09:56:25;19.80;99.90
23289;DHT22;11813;50.834;4.280;2023-10-09T09:58:51;20.00;99.90
23289;DHT22;11813;50.834;4.280;2023-10-09T10:01:19;20.00;99.90
23289;DHT22;11813;50.834;4.280;2023-10-09T10:04:15;19.90;99.90
23289;DHT22;11813;50.834;4.280;2023-10-09T10:06:46;20.00;99.90
23289;DHT22;11813;50.834;4.280;2023-10-09T10:12:07;20.20;99.90
23289;DHT22;11813;50.834;4.280;2023-10-09T10:14:52;20.40;99.90
23289;DHT22;11813;50.834;4.280;2023-10-09T10:17:18;20.30;99.90
23289;DHT22;11813;50.834;4.280;2023-10-09T10:20:13;20.40;99.90
23289;DHT22;11813;50.834;4.280;2023-10-09T10:23:33;20.40;99.90
23289;DHT22;11813;50.834;4.280;2023-10-09T10:25:42;20.50;99.90
23289;DHT22;11813;50.834;4.280;2023-10-09T10:28:21;20.60;99.90
23289;DHT22;11813;50.834;4.280;2023-10-09T10:31:05;20.70;99.90
23289;DHT22;11813;50.834;4.280;2023-10-09T10:36:22;20.90;99.90
23289;DHT22;11813;50.834;4.280;2023-10-09T10:39:08;21.10;99.90
23289;DHT22;11813;50.834;4.280;2023-10-09T10:41:57;21.20;99.90
23289;DHT22;11813;50.834;4.280;2023-10-09T10:44:30;21.40;99.90
23289;DHT22;11813;50.834;4.280;2023-10-09T10:47:00;21.30;99.90
23289;DHT22;11813;50.834;4.280;2023-10-09T10:49:27;21.50;99.90
23289;DHT22;11813;50.834;4.280;2023-10-09T10:52:02;21.60;99.90
23289;DHT22;11813;50.834;4.280;2023-10-09T10:54:49;21.50;99.90
23289;DHT22;11813;50.834;4.280;2023-10-09T10:57:41;21.40;99.90
23289;DHT22;11813;50.834;4.280;2023-10-09T11:00:19;21.40;99.90
23289;DHT22;11813;50.834;4.280;2023-10-09T11:03:04;21.40;99.90
23289;DHT22;11813;50.834;4.280;2023-10-09T11:05:42;21.50;99.90
23289;DHT22;11813;50.834;4.280;2023-10-09T11:08:11;21.50;99.90
23289;DHT22;11813;50.834;4.280;2023-10-09T11:10:37;21.60;99.90
23289;DHT22;11813;50.834;4.280;2023-10-09T11:13:26;21.70;99.90
23289;DHT22;11813;50.834;4.280;2023-10-09T11:16:00;21.70;99.90
23289;DHT22;11813;50.834;4.280;2023-10-09T11:18:49;21.80;99.90
23289;DHT22;11813;50.834;4.280;2023-10-09T11:21:15;21.90;99.90
23289;DHT22;11813;50.834;4.280;2023-10-09T11:23:41;22.00;99.90
23289;DHT22;11813;50.834;4.280;2023-10-09T11:26:16;22.00;99.90
23289;DHT22;11813;50.834;4.280;2023-10-09T11:31:39;22.00;99.90
23289;DHT22;11813;50.834;4.280;2023-10-09T11:34:18;21.90;99.90
23289;DHT22;11813;50.834;4.280;2023-10-09T11:39:28;21.90;99.90
23289;DHT22;11813;50.834;4.280;2023-10-09T11:42:07;22.10;99.90
23289;DHT22;11813;50.834;4.280;2023-10-09T11:47:06;22.40;99.90
23289;DHT22;11813;50.834;4.280;2023-10-09T11:49:57;22.50;99.90
23289;DHT22;11813;50.834;4.280;2023-10-09T11:52:29;22.50;99.90
23289;DHT22;11813;50.834;4.280;2023-10-09T11:55:04;22.50;99.90
23289;DHT22;11813;50.834;4.280;2023-10-09T11:57:33;22.40;99.90
23289;DHT22;11813;50.834;4.280;2023-10-09T12:00:01;22.40;99.90
23289;DHT22;11813;50.834;4.280;2023-10-09T12:02:35;22.60;99.90
23289;DHT22;11813;50.834;4.280;2023-10-09T12:05:10;22.80;99.90
23289;DHT22;11813;50.834;4.280;2023-10-09T12:07:44;22.90;99.90
23289;DHT22;11813;50.834;4.280;2023-10-09T12:10:09;22.90;99.90
23289;DHT22;11813;50.834;4.280;2023-10-09T12:12:36;22.90;99.90
23289;DHT22;11813;50.834;4.280;2023-10-09T12:15:02;22.60;99.90
23289;DHT22;11813;50.834;4.280;2023-10-09T12:17:30;22.80;99.90
23289;DHT22;11813;50.834;4.280;2023-10-09T12:19:56;22.80;99.90
23289;DHT22;11813;50.834;4.280;2023-10-09T12:22:21;22.60;99.90
23289;DHT22;11813;50.834;4.280;2023-10-09T12:24:52;22.80;99.90
23289;DHT22;11813;50.834;4.280;2023-10-09T12:27:19;23.10;99.90
23289;DHT22;11813;50.834;4.280;2023-10-09T12:29:45;23.30;99.90
23289;DHT22;11813;50.834;4.280;2023-10-09T12:32:11;23.40;99.90
23289;DHT22;11813;50.834;4.280;2023-10-09T12:34:38;23.60;99.90
23289;DHT22;11813;50.834;4.280;2023-10-09T12:37:04;23.80;99.90
23289;DHT22;11813;50.834;4.280;2023-10-09T12:39:30;23.90;99.90
23289;DHT22;11813;50.834;4.280;2023-10-09T12:42:02;23.80;99.90
23289;DHT22;11813;50.834;4.280;2023-10-09T12:44:34;23.70;99.90
23289;DHT22;11813;50.834;4.280;2023-10-09T12:47:07;23.60;99.90
23289;DHT22;11813;50.834;4.280;2023-10-09T12:49:33;23.90;99.90
23289;DHT22;11813;50.834;4.280;2023-10-09T12:51:58;23.60;99.90
23289;DHT22;11813;50.834;4.280;2023-10-09T12:54:27;23.60;99.90
23289;DHT22;11813;50.834;4.280;2023-10-09T12:56:56;23.70;99.90
23289;DHT22;11813;50.834;4.280;2023-10-09T12:59:24;23.40;99.90
23289;DHT22;11813;50.834;4.280;2023-10-09T13:01:50;23.30;99.90
23289;DHT22;11813;50.834;4.280;2023-10-09T13:04:23;23.50;99.90
23289;DHT22;11813;50.834;4.280;2023-10-09T13:06:49;23.50;99.90
23289;DHT22;11813;50.834;4.280;2023-10-09T13:09:19;23.70;99.90
23289;DHT22;11813;50.834;4.280;2023-10-09T13:12:00;23.90;99.90
23289;DHT22;11813;50.834;4.280;2023-10-09T13:14:29;24.00;99.90
23289;DHT22;11813;50.834;4.280;2023-10-09T13:16:59;24.10;99.90
23289;DHT22;11813;50.834;4.280;2023-10-09T13:19:25;24.20;99.90
23289;DHT22;11813;50.834;4.280;2023-10-09T13:21:50;24.30;99.90
23289;DHT22;11813;50.834;4.280;2023-10-09T13:24:16;24.50;99.90
23289;DHT22;11813;50.834;4.280;2023-10-09T13:26:43;24.70;99.90
23289;DHT22;11813;50.834;4.280;2023-10-09T13:29:12;24.60;99.90
23289;DHT22;11813;50.834;4.280;2023-10-09T13:31:39;24.40;99.90
23289;DHT22;11813;50.834;4.280;2023-10-09T13:34:05;24.40;99.90
23289;DHT22;11813;50.834;4.280;2023-10-09T13:36:40;24.30;99.90
23289;DHT22;11813;50.834;4.280;2023-10-09T13:39:10;24.40;99.90
23289;DHT22;11813;50.834;4.280;2023-10-09T13:41:53;24.40;99.90
23289;DHT22;11813;50.834;4.280;2023-10-09T13:44:24;24.40;99.90
23289;DHT22;11813;50.834;4.280;2023-10-09T13:46:55;24.20;99.90
23289;DHT22;11813;50.834;4.280;2023-10-09T13:49:21;24.10;99.90
23289;DHT22;11813;50.834;4.280;2023-10-09T13:51:49;24.10;99.90
23289;DHT22;11813;50.834;4.280;2023-10-09T13:54:16;24.30;99.90
23289;DHT22;11813;50.834;4.280;2023-10-09T13:56:54;24.40;99.90
23289;DHT22;11813;50.834;4.280;2023-10-09T13:59:21;24.20;99.90
23289;DHT22;11813;50.834;4.280;2023-10-09T14:01:51;24.50;99.90
23289;DHT22;11813;50.834;4.280;2023-10-09T14:04:20;24.50;99.90
23289;DHT22;11813;50.834;4.280;2023-10-09T14:06:46;24.50;99.90
23289;DHT22;11813;50.834;4.280;2023-10-09T14:09:13;24.70;99.90
23289;DHT22;11813;50.834;4.280;2023-10-09T14:11:55;24.80;99.90
23289;DHT22;11813;50.834;4.280;2023-10-09T14:14:44;24.90;99.90
23289;DHT22;11813;50.834;4.280;2023-10-09T14:17:16;24.90;99.90
23289;DHT22;11813;50.834;4.280;2023-10-09T14:19:49;25.10;99.90
23289;DHT22;11813;50.834;4.280;2023-10-09T14:22:34;25.20;99.90
23289;DHT22;11813;50.834;4.280;2023-10-09T14:25:03;25.30;99.90
23289;DHT22;11813;50.834;4.280;2023-10-09T14:27:38;25.40;99.90
23289;DHT22;11813;50.834;4.280;2023-10-09T14:30:04;25.30;99.90
23289;DHT22;11813;50.834;4.280;2023-10-09T14:32:38;25.20;99.90
23289;DHT22;11813;50.834;4.280;2023-10-09T14:35:09;25.10;99.90
23289;DHT22;11813;50.834;4.280;2023-10-09T14:37:41;25.10;99.90
23289;DHT22;11813;50.834;4.280;2023-10-09T14:40:07;25.20;99.90
23289;DHT22;11813;50.834;4.280;2023-10-09T14:42:39;25.10;99.90
23289;DHT22;11813;50.834;4.280;2023-10-09T14:45:10;25.10;99.90
23289;DHT22;11813;50.834;4.280;2023-10-09T14:47:42;25.10;99.90
23289;DHT22;11813;50.834;4.280;2023-10-09T14:50:08;25.10;99.90
23289;DHT22;11813;50.834;4.280;2023-10-09T14:52:35;25.10;99.90
23289;DHT22;11813;50.834;4.280;2023-10-09T14:55:05;25.10;99.90
23289;DHT22;11813;50.834;4.280;2023-10-09T14:57:31;25.20;99.90
23289;DHT22;11813;50.834;4.280;2023-10-09T15:00:00;25.10;99.90
23289;DHT22;11813;50.834;4.280;2023-10-09T15:02:26;25.10;99.90
23289;DHT22;11813;50.834;4.280;2023-10-09T15:04:52;25.10;99.90
23289;DHT22;11813;50.834;4.280;2023-10-09T15:07:18;25.10;99.90
23289;DHT22;11813;50.834;4.280;2023-10-09T15:09:46;25.20;99.90
23289;DHT22;11813;50.834;4.280;2023-10-09T15:12:12;25.20;99.90
23289;DHT22;11813;50.834;4.280;2023-10-09T15:14:37;25.10;99.90
23289;DHT22;11813;50.834;4.280;2023-10-09T15:17:04;25.10;99.90
23289;DHT22;11813;50.834;4.280;2023-10-09T15:19:32;25.00;99.90
23289;DHT22;11813;50.834;4.280;2023-10-09T15:21:58;24.90;99.90
23289;DHT22;11813;50.834;4.280;2023-10-09T15:24:25;24.90;99.90
23289;DHT22;11813;50.834;4.280;2023-10-09T15:26:53;24.90;99.90
23289;DHT22;11813;50.834;4.280;2023-10-09T15:29:23;24.90;99.90
23289;DHT22;11813;50.834;4.280;2023-10-09T15:31:54;24.90;99.90
23289;DHT22;11813;50.834;4.280;2023-10-09T15:34:20;24.70;99.90
23289;DHT22;11813;50.834;4.280;2023-10-09T15:36:46;24.70;99.90
23289;DHT22;11813;50.834;4.280;2023-10-09T15:39:14;24.70;99.90
23289;DHT22;11813;50.834;4.280;2023-10-09T15:41:45;24.70;99.90
23289;DHT22;11813;50.834;4.280;2023-10-09T15:44:11;24.70;99.90
23289;DHT22;11813;50.834;4.280;2023-10-09T15:46:39;24.70;99.90
23289;DHT22;11813;50.834;4.280;2023-10-09T15:49:04;24.70;99.90
23289;DHT22;11813;50.834;4.280;2023-10-09T15:51:32;24.60;99.90
23289;DHT22;11813;50.834;4.280;2023-10-09T15:53:58;24.60;99.90
23289;DHT22;11813;50.834;4.280;2023-10-09T15:56:26;24.50;99.90
23289;DHT22;11813;50.834;4.280;2023-10-09T15:58:52;24.40;99.90
23289;DHT22;11813;50.834;4.280;2023-10-09T16:01:19;24.40;99.90
23289;DHT22;11813;50.834;4.280;2023-10-09T16:03:46;24.20;99.90
23289;DHT22;11813;50.834;4.280;2023-10-09T16:06:16;24.20;99.90
23289;DHT22;11813;50.834;4.280;2023-10-09T16:08:48;24.10;99.90
23289;DHT22;11813;50.834;4.280;2023-10-09T16:11:19;24.00;99.90
23289;DHT22;11813;50.834;4.280;2023-10-09T16:13:45;23.90;99.90
23289;DHT22;11813;50.834;4.280;2023-10-09T16:16:11;23.80;99.90
23289;DHT22;11813;50.834;4.280;2023-10-09T16:18:39;23.80;99.90
23289;DHT22;11813;50.834;4.280;2023-10-09T16:21:05;23.70;99.90
23289;DHT22;11813;50.834;4.280;2023-10-09T16:23:33;23.60;99.90
23289;DHT22;11813;50.834;4.280;2023-10-09T16:25:59;23.50;99.90
23289;DHT22;11813;50.834;4.280;2023-10-09T16:28:28;23.40;99.90
23289;DHT22;11813;50.834;4.280;2023-10-09T16:30:54;23.40;99.90
23289;DHT22;11813;50.834;4.280;2023-10-09T16:33:20;23.40;99.90